createdAt,value
2022-09-03T00:02:07.177Z,89.60
2022-09-03T00:05:05.408Z,89.80
2022-09-03T00:07:39.831Z,89.90
2022-09-03T00:10:16.271Z,89.80
2022-09-03T00:12:46.606Z,90.00
2022-09-03T00:15:18.862Z,90.00
2022-09-03T00:18:12.616Z,90.10
2022-09-03T00:20:46.996Z,90.10
2022-09-03T00:23:21.808Z,90.20
2022-09-03T00:25:56.111Z,90.30
2022-09-03T00:28:30.337Z,90.40
2022-09-03T00:31:11.250Z,90.40
2022-09-03T00:33:40.629Z,90.50
2022-09-03T00:36:44.449Z,90.60
2022-09-03T00:39:13.899Z,90.60
2022-09-03T00:41:59.194Z,90.70
2022-09-03T00:44:54.311Z,90.60
2022-09-03T00:47:39.951Z,90.70
2022-09-03T00:50:33.366Z,90.90
2022-09-03T00:53:03.959Z,90.80
2022-09-03T00:55:58.895Z,90.90
2022-09-03T00:59:06.487Z,91.00
2022-09-03T01:01:42.334Z,91.10
2022-09-03T01:04:42.726Z,91.20
2022-09-03T01:07:22.041Z,91.30
2022-09-03T01:10:10.181Z,91.20
2022-09-03T01:12:55.936Z,91.30
2022-09-03T01:15:43.126Z,91.40
2022-09-03T01:18:28.778Z,91.50
2022-09-03T01:21:29.352Z,91.60
2022-09-03T01:24:18.642Z,91.70
2022-09-03T01:27:05.929Z,91.70
2022-09-03T01:30:06.209Z,91.80
2022-09-03T01:33:01.976Z,91.90
2022-09-03T01:35:31.914Z,91.90
2022-09-03T01:38:02.007Z,91.90
2022-09-03T01:40:43.109Z,91.90
2022-09-03T01:43:38.522Z,91.90
2022-09-03T01:46:19.181Z,92.10
2022-09-03T01:49:06.444Z,92.10
2022-09-03T01:51:34.071Z,92.10
2022-09-03T01:54:22.260Z,92.30
2022-09-03T01:57:34.962Z,92.20
2022-09-03T02:00:05.889Z,92.40
2022-09-03T02:02:41.128Z,92.50
2022-09-03T02:05:10.278Z,92.60
2022-09-03T02:07:40.457Z,92.60
2022-09-03T02:10:17.811Z,92.60
2022-09-03T02:12:53.631Z,92.50
2022-09-03T02:15:23.229Z,92.50
2022-09-03T02:17:56.557Z,92.70
2022-09-03T02:20:27.073Z,92.70
2022-09-03T02:22:54.719Z,93.10
2022-09-03T02:25:25.483Z,92.90
2022-09-03T02:27:53.482Z,92.90
2022-09-03T02:30:20.975Z,92.90
2022-09-03T02:32:47.965Z,92.90
2022-09-03T02:35:14.935Z,93.00
2022-09-03T02:37:42.029Z,93.00
2022-09-03T02:40:10.390Z,92.90
2022-09-03T02:42:37.799Z,92.90
2022-09-03T02:45:31.655Z,93.00
2022-09-03T02:48:00.577Z,93.00
2022-09-03T02:50:27.969Z,93.10
2022-09-03T02:52:55.028Z,93.00
2022-09-03T02:55:22.101Z,93.00
2022-09-03T02:57:49.212Z,93.00
2022-09-03T03:00:17.630Z,93.00
2022-09-03T03:02:44.732Z,93.10
2022-09-03T03:05:19.110Z,93.00
2022-09-03T03:07:46.155Z,93.00
2022-09-03T03:10:13.490Z,93.20
2022-09-03T03:12:40.688Z,93.20
2022-09-03T03:15:07.895Z,93.30
2022-09-03T03:17:35.054Z,93.30
2022-09-03T03:20:02.178Z,93.30
2022-09-03T03:22:29.182Z,93.30
2022-09-03T03:24:57.748Z,93.40
2022-09-03T03:27:24.865Z,93.50
2022-09-03T03:29:52.322Z,93.60
2022-09-03T03:32:19.370Z,93.60
2022-09-03T03:34:46.533Z,93.70
2022-09-03T03:37:13.593Z,93.90
2022-09-03T03:39:40.585Z,93.90
2022-09-03T03:42:07.745Z,93.90
2022-09-03T03:44:34.777Z,93.90
2022-09-03T03:47:02.781Z,93.90
2022-09-03T03:49:29.702Z,94.00
2022-09-03T03:51:56.690Z,94.10
2022-09-03T03:54:23.657Z,94.20
2022-09-03T03:56:55.419Z,94.00
2022-09-03T03:59:23.070Z,94.10
2022-09-03T04:01:50.817Z,94.10
2022-09-03T04:04:18.022Z,94.20
2022-09-03T04:06:45.939Z,94.30
2022-09-03T04:09:15.524Z,94.30
2022-09-03T04:11:47.455Z,94.50
2022-09-03T04:14:20.215Z,94.40
2022-09-03T04:16:47.871Z,94.50
2022-09-03T04:19:15.377Z,94.50
2022-09-03T04:21:42.909Z,94.60
2022-09-03T04:24:10.190Z,94.60
2022-09-03T04:26:37.539Z,94.70
2022-09-03T04:29:07.743Z,94.70
2022-09-03T04:31:35.962Z,94.80
2022-09-03T04:34:03.158Z,94.90
2022-09-03T04:36:32.055Z,94.90
2022-09-03T04:39:04.418Z,94.90
2022-09-03T04:41:34.677Z,95.00
2022-09-03T04:44:01.928Z,94.90
2022-09-03T04:46:34.629Z,94.80
2022-09-03T04:49:05.655Z,94.90
2022-09-03T04:51:35.360Z,95.00
2022-09-03T04:54:02.858Z,94.90
2022-09-03T04:56:32.867Z,95.00
2022-09-03T04:59:03.494Z,94.90
2022-09-03T05:01:32.770Z,94.80
2022-09-03T05:04:00.950Z,94.80
2022-09-03T05:06:30.642Z,94.80
2022-09-03T05:08:58.578Z,94.80
2022-09-03T05:11:26.614Z,94.60
2022-09-03T05:13:58.199Z,94.70
2022-09-03T05:16:28.381Z,94.80
2022-09-03T05:18:56.933Z,94.80
2022-09-03T05:21:24.898Z,94.70
2022-09-03T05:23:53.393Z,94.80
2022-09-03T05:26:27.457Z,95.00
2022-09-03T05:29:08.290Z,94.90
2022-09-03T05:31:39.689Z,95.00
2022-09-03T05:34:10.650Z,95.10
2022-09-03T05:36:43.719Z,95.10
2022-09-03T05:39:10.954Z,95.00
2022-09-03T05:41:40.948Z,95.10
2022-09-03T05:44:11.214Z,95.10
2022-09-03T05:46:41.199Z,95.20
2022-09-03T05:49:08.793Z,95.10
2022-09-03T05:51:42.936Z,95.20
2022-09-03T05:54:10.963Z,95.20
2022-09-03T05:56:42.554Z,95.00
2022-09-03T05:59:14.152Z,95.30
2022-09-03T06:01:52.929Z,95.40
2022-09-03T06:04:21.732Z,95.40
2022-09-03T06:06:50.092Z,95.50
2022-09-03T06:09:20.024Z,96.00
2022-09-03T06:11:49.651Z,96.40
2022-09-03T06:14:19.971Z,96.60
2022-09-03T06:16:50.253Z,96.60
2022-09-03T06:19:17.770Z,97.00
2022-09-03T06:21:46.027Z,96.80
2022-09-03T06:24:17.625Z,97.30
2022-09-03T06:26:45.486Z,97.10
2022-09-03T06:29:13.204Z,97.60
2022-09-03T06:31:40.490Z,97.00
2022-09-03T06:34:08.069Z,97.20
2022-09-03T06:36:35.512Z,97.30
2022-09-03T06:39:03.093Z,97.10
2022-09-03T06:41:33.217Z,97.60
2022-09-03T06:44:03.908Z,97.70
2022-09-03T06:46:33.207Z,97.70
2022-09-03T06:49:00.631Z,97.60
2022-09-03T06:51:30.571Z,97.40
2022-09-03T06:54:03.591Z,97.60
2022-09-03T06:56:38.919Z,97.80
2022-09-03T06:59:12.947Z,97.70
2022-09-03T07:01:43.656Z,98.10
2022-09-03T07:04:13.213Z,98.20
2022-09-03T07:06:43.193Z,98.30
2022-09-03T07:09:12.392Z,98.60
2022-09-03T07:11:47.848Z,98.50
2022-09-03T07:14:26.243Z,98.90
2022-09-03T07:25:15.336Z,99.90
2022-09-03T07:27:42.186Z,99.90
2022-09-03T07:30:10.354Z,99.90
2022-09-03T07:32:40.912Z,99.90
2022-09-03T07:35:08.650Z,99.90
2022-09-03T07:37:35.745Z,99.90
2022-09-03T07:40:03.067Z,99.90
2022-09-03T07:42:31.106Z,99.90
2022-09-03T07:44:59.009Z,99.90
2022-09-03T07:47:26.995Z,99.90
2022-09-03T07:49:54.060Z,99.90
2022-09-03T07:52:20.886Z,99.90
2022-09-03T07:54:47.779Z,99.90
2022-09-03T07:57:14.640Z,99.90
2022-09-03T07:59:41.980Z,99.90
2022-09-03T08:02:08.812Z,99.90
2022-09-03T08:04:36.209Z,99.90
2022-09-03T08:07:03.872Z,99.90
2022-09-03T08:09:32.947Z,99.90
2022-09-03T08:11:59.758Z,99.90
2022-09-03T08:14:26.604Z,99.90
2022-09-03T08:16:53.443Z,99.90
2022-09-03T08:19:20.498Z,99.90
2022-09-03T08:21:47.505Z,99.90
2022-09-03T08:24:16.894Z,99.90
2022-09-03T08:26:50.378Z,99.90
2022-09-03T08:29:19.111Z,99.90
2022-09-03T08:31:46.200Z,99.90
2022-09-03T08:34:14.638Z,99.90
2022-09-03T08:36:41.651Z,99.90
2022-09-03T08:39:10.511Z,99.90
2022-09-03T08:42:19.052Z,99.90
2022-09-03T08:44:50.173Z,99.90
2022-09-03T08:47:34.167Z,99.90
2022-09-03T08:50:22.475Z,99.90
2022-09-03T08:52:55.323Z,99.90
2022-09-03T08:55:50.667Z,99.90
2022-09-03T08:58:22.889Z,99.90
2022-09-03T09:01:01.576Z,99.90
2022-09-03T09:03:56.509Z,99.90
2022-09-03T09:06:23.316Z,99.90
2022-09-03T09:09:17.535Z,99.90
2022-09-03T09:12:21.162Z,99.90
2022-09-03T09:14:56.598Z,99.90
2022-09-03T09:18:11.618Z,99.90
2022-09-03T09:20:55.074Z,99.90
2022-09-03T09:23:36.104Z,99.90
2022-09-03T09:26:10.406Z,99.90
2022-09-03T09:28:38.958Z,99.90
2022-09-03T09:31:15.290Z,99.90
2022-09-03T09:33:43.746Z,99.90
2022-09-03T09:36:16.336Z,99.90
2022-09-03T09:38:46.731Z,99.90
2022-09-03T09:41:19.651Z,99.90
2022-09-03T09:43:48.223Z,99.90
2022-09-03T09:46:23.179Z,99.90
2022-09-03T09:48:53.238Z,99.90
2022-09-03T09:51:31.419Z,99.90
2022-09-03T09:54:18.938Z,99.90
2022-09-03T09:56:47.479Z,99.90
2022-09-03T09:59:15.444Z,99.90
2022-09-03T10:01:44.980Z,99.90
2022-09-03T10:04:33.268Z,99.90
2022-09-03T10:07:31.764Z,99.90
2022-09-03T10:10:13.096Z,99.90
2022-09-03T10:12:47.045Z,99.90
2022-09-03T10:15:28.404Z,99.90
2022-09-03T10:18:16.693Z,99.90
2022-09-03T10:21:06.753Z,99.90
2022-09-03T10:24:07.630Z,99.90
2022-09-03T10:26:36.970Z,99.90
2022-09-03T10:29:07.016Z,99.90
2022-09-03T10:31:34.067Z,99.90
2022-09-03T10:34:14.603Z,99.90
2022-09-03T10:36:56.815Z,99.90
2022-09-03T10:39:43.101Z,99.90
2022-09-03T10:42:29.014Z,99.90
2022-09-03T10:45:13.271Z,99.90
2022-09-03T10:47:56.019Z,99.90
2022-09-03T10:50:29.151Z,99.90
2022-09-03T10:53:22.151Z,99.90
2022-09-03T10:56:01.837Z,99.90
2022-09-03T10:58:53.066Z,99.90
2022-09-03T11:02:04.671Z,99.90
2022-09-03T11:04:49.368Z,99.90
2022-09-03T11:07:26.161Z,99.90
2022-09-03T11:10:06.293Z,99.90
2022-09-03T11:12:39.709Z,99.90
2022-09-03T11:15:14.140Z,99.90
2022-09-03T11:17:48.137Z,99.90
2022-09-03T11:20:18.713Z,99.90
2022-09-03T11:22:48.071Z,99.90
2022-09-03T11:25:17.519Z,99.90
2022-09-03T11:27:56.875Z,99.90
2022-09-03T11:30:29.198Z,99.90
2022-09-03T11:33:00.506Z,99.90
2022-09-03T11:35:37.583Z,99.90
2022-09-03T11:38:08.604Z,99.90
2022-09-03T11:40:41.955Z,99.90
2022-09-03T11:43:25.006Z,99.90
2022-09-03T11:46:13.928Z,99.90
2022-09-03T11:48:46.173Z,99.90
2022-09-03T11:51:30.985Z,99.90
2022-09-03T11:54:02.194Z,99.90
2022-09-03T11:56:31.143Z,99.90
2022-09-03T11:59:07.175Z,99.90
2022-09-03T12:01:37.267Z,99.90
2022-09-03T12:04:09.723Z,99.90
2022-09-03T12:06:42.448Z,99.90
2022-09-03T12:09:18.467Z,99.90
2022-09-03T12:12:13.911Z,99.90
2022-09-03T12:14:47.134Z,99.90
2022-09-03T12:18:14.451Z,99.90
2022-09-03T12:20:42.214Z,99.90
2022-09-03T12:23:15.104Z,99.90
2022-09-03T12:25:47.469Z,99.90
2022-09-03T12:28:23.415Z,99.90
2022-09-03T12:30:53.341Z,99.90
2022-09-03T12:33:23.162Z,99.90
2022-09-03T12:36:01.049Z,99.90
2022-09-03T12:38:29.891Z,99.90
2022-09-03T12:43:51.959Z,99.90
2022-09-03T12:46:26.669Z,99.90
2022-09-03T12:52:03.127Z,99.90
2022-09-03T12:54:32.882Z,99.90
2022-09-03T12:57:00.479Z,99.90
2022-09-03T12:59:31.397Z,99.90
2022-09-03T13:02:03.701Z,99.90
2022-09-03T13:04:35.000Z,99.90
2022-09-03T13:07:11.887Z,99.90
2022-09-03T13:09:40.372Z,99.90
2022-09-03T13:12:07.790Z,99.90
2022-09-03T13:15:13.890Z,99.90
2022-09-03T13:18:02.740Z,99.90
2022-09-03T13:20:50.388Z,99.90
2022-09-03T13:23:29.703Z,99.90
2022-09-03T13:26:05.931Z,99.90
2022-09-03T13:28:45.390Z,99.90
2022-09-03T13:31:35.031Z,99.90
2022-09-03T13:34:15.295Z,99.90
2022-09-03T13:37:12.898Z,99.90
2022-09-03T13:40:16.165Z,99.90
2022-09-03T13:42:53.307Z,99.90
2022-09-03T13:45:41.297Z,99.90
2022-09-03T13:48:39.276Z,99.90
2022-09-03T13:51:18.415Z,99.90
2022-09-03T13:54:11.711Z,99.90
2022-09-03T13:57:01.391Z,99.90
2022-09-03T13:59:28.240Z,99.90
2022-09-03T14:02:23.744Z,99.90
2022-09-03T14:05:08.303Z,99.90
2022-09-03T14:07:49.446Z,99.90
2022-09-03T14:10:47.241Z,99.90
2022-09-03T14:13:42.069Z,99.90
2022-09-03T14:16:24.248Z,99.90
2022-09-03T14:19:17.106Z,99.90
2022-09-03T14:21:47.332Z,99.90
2022-09-03T14:24:25.669Z,99.90
2022-09-03T14:26:58.910Z,99.90
2022-09-03T14:29:31.446Z,99.90
2022-09-03T14:32:15.915Z,99.90
2022-09-03T14:34:54.498Z,99.90
2022-09-03T14:37:48.967Z,99.90
2022-09-03T14:40:34.808Z,99.90
2022-09-03T14:43:13.530Z,99.90
2022-09-03T14:46:08.718Z,99.90
2022-09-03T14:48:54.497Z,99.90
2022-09-03T14:52:03.627Z,99.90
2022-09-03T14:54:56.812Z,99.90
2022-09-03T14:57:51.492Z,99.90
2022-09-03T15:00:22.362Z,99.90
2022-09-03T15:03:26.705Z,99.90
2022-09-03T15:06:30.898Z,99.90
2022-09-03T15:09:25.376Z,99.90
2022-09-03T15:12:00.339Z,99.90
2022-09-03T15:14:54.765Z,99.90
2022-09-03T15:17:56.363Z,99.90
2022-09-03T15:20:52.912Z,99.90
2022-09-03T15:23:32.687Z,99.90
2022-09-03T15:26:27.409Z,99.90
2022-09-03T15:29:26.330Z,99.90
2022-09-03T15:32:14.955Z,99.90
2022-09-03T15:35:09.050Z,99.90
2022-09-03T15:37:59.693Z,99.90
2022-09-03T15:40:51.895Z,99.90
2022-09-03T15:43:30.860Z,99.90
2022-09-03T15:46:10.774Z,99.90
2022-09-03T15:49:04.392Z,99.90
2022-09-03T15:51:36.408Z,99.90
2022-09-03T15:54:30.895Z,99.90
2022-09-03T15:57:40.789Z,99.90
2022-09-03T16:00:21.238Z,99.90
2022-09-03T16:02:54.681Z,99.90
2022-09-03T16:05:39.367Z,99.90
2022-09-03T16:08:31.801Z,99.90
2022-09-03T16:11:35.642Z,99.90
2022-09-03T16:14:12.179Z,99.90
2022-09-03T16:16:55.950Z,99.90
2022-09-03T16:19:47.019Z,99.90
2022-09-03T16:22:37.509Z,99.90
2022-09-03T16:25:13.186Z,99.90
2022-09-03T16:28:10.292Z,99.90
2022-09-03T16:30:39.657Z,99.90
2022-09-03T16:33:40.019Z,99.90
2022-09-03T16:36:31.324Z,99.90
2022-09-03T16:39:25.062Z,99.90
2022-09-03T16:42:29.387Z,99.90
2022-09-03T16:44:59.893Z,99.90
2022-09-03T16:47:46.279Z,99.90
2022-09-03T16:50:27.666Z,99.90
2022-09-03T16:53:14.066Z,99.90
2022-09-03T16:56:12.070Z,99.90
2022-09-03T16:58:52.950Z,99.90
2022-09-03T17:01:46.035Z,99.90
2022-09-03T17:04:19.109Z,99.90
2022-09-03T17:07:10.168Z,99.90
2022-09-03T17:10:07.374Z,99.90
2022-09-03T17:13:08.725Z,99.90
2022-09-03T17:15:53.713Z,99.90
2022-09-03T17:18:40.810Z,99.90
2022-09-03T17:21:37.267Z,99.90
2022-09-03T17:24:16.388Z,99.90
2022-09-03T17:27:33.150Z,99.90
2022-09-03T17:30:19.719Z,99.90
2022-09-03T17:33:07.996Z,99.90
2022-09-03T17:35:49.832Z,99.90
2022-09-03T17:38:25.573Z,99.90
2022-09-03T17:41:01.877Z,99.90
2022-09-03T17:43:55.646Z,99.90
2022-09-03T17:47:01.456Z,99.90
2022-09-03T17:49:34.583Z,99.90
2022-09-03T17:52:20.103Z,99.90
2022-09-03T17:54:53.349Z,99.90
2022-09-03T17:57:38.585Z,99.90
2022-09-03T18:00:09.851Z,99.90
2022-09-03T18:02:43.905Z,99.90
2022-09-03T18:05:27.629Z,99.90
2022-09-03T18:08:18.270Z,99.90
2022-09-03T18:11:15.822Z,99.90
2022-09-03T18:14:23.758Z,99.90
2022-09-03T18:17:03.129Z,99.90
2022-09-03T18:20:06.540Z,99.90
2022-09-03T18:23:19.951Z,99.90
2022-09-03T18:26:09.891Z,99.90
2022-09-03T18:29:05.743Z,99.90
2022-09-03T18:31:51.186Z,99.90
2022-09-03T18:34:44.267Z,99.90
2022-09-03T18:37:29.810Z,99.90
2022-09-03T18:40:15.049Z,99.90
2022-09-03T18:43:37.286Z,99.90
2022-09-03T18:47:40.929Z,99.90
2022-09-03T18:49:54.620Z,99.90
2022-09-03T18:53:02.896Z,99.90
2022-09-03T18:56:05.409Z,99.90
2022-09-03T18:59:12.560Z,99.90
2022-09-03T19:02:00.652Z,99.90
2022-09-03T19:04:55.017Z,99.90
2022-09-03T19:07:46.464Z,99.90
2022-09-03T19:10:40.976Z,99.90
2022-09-03T19:13:52.218Z,99.90
2022-09-03T19:16:37.487Z,99.90
2022-09-03T19:19:44.681Z,99.90
2022-09-03T19:22:34.723Z,99.90
2022-09-03T19:25:29.395Z,99.90
2022-09-03T19:28:35.704Z,99.90
2022-09-03T19:31:59.986Z,99.90
2022-09-03T19:35:17.681Z,99.90
2022-09-03T19:38:33.646Z,99.90
2022-09-03T19:41:39.333Z,99.90
2022-09-03T19:44:43.160Z,99.90
2022-09-03T19:47:37.089Z,99.90
2022-09-03T19:50:46.027Z,99.90
2022-09-03T19:53:37.752Z,99.90
2022-09-03T19:56:33.702Z,99.90
2022-09-03T19:59:24.692Z,99.90
2022-09-03T20:02:11.215Z,99.90
2022-09-03T20:05:15.480Z,99.90
2022-09-03T20:08:01.176Z,99.90
2022-09-03T20:11:15.992Z,99.90
2022-09-03T20:14:01.667Z,99.90
2022-09-03T20:16:47.148Z,99.90
2022-09-03T20:19:40.579Z,99.90
2022-09-03T20:22:29.722Z,99.90
2022-09-03T20:25:05.081Z,99.90
2022-09-03T20:27:43.181Z,99.90
2022-09-03T20:30:20.136Z,99.90
2022-09-03T20:32:58.001Z,99.90
2022-09-03T20:35:33.838Z,99.90
2022-09-03T20:38:23.024Z,99.90
2022-09-03T20:40:49.814Z,99.90
2022-09-03T20:43:41.967Z,99.90
2022-09-03T20:46:27.771Z,99.90
2022-09-03T20:49:03.797Z,99.90
2022-09-03T20:51:47.769Z,99.90
2022-09-03T20:54:28.804Z,99.90
2022-09-03T20:57:14.513Z,99.90
2022-09-03T21:00:18.487Z,99.90
2022-09-03T21:03:07.507Z,99.90
2022-09-03T21:06:02.086Z,99.90
2022-09-03T21:09:06.005Z,99.90
2022-09-03T21:11:50.354Z,99.90
2022-09-03T21:14:46.468Z,99.90
2022-09-03T21:17:32.160Z,99.90
2022-09-03T21:20:24.813Z,99.90
2022-09-03T21:23:21.146Z,99.90
2022-09-03T21:26:24.866Z,99.90
2022-09-03T21:29:23.590Z,99.90
2022-09-03T21:32:07.036Z,99.90
2022-09-03T21:34:58.120Z,99.90
2022-09-03T21:37:25.109Z,99.90
2022-09-03T21:40:01.304Z,99.90
2022-09-03T21:42:42.114Z,99.90
2022-09-03T21:45:40.163Z,99.90
2022-09-03T21:48:13.099Z,99.90
2022-09-03T21:50:53.353Z,99.90
2022-09-03T21:53:25.314Z,99.90
2022-09-03T21:56:22.914Z,99.90
2022-09-03T21:59:00.680Z,99.90
2022-09-03T22:02:16.643Z,99.90
2022-09-03T22:04:44.194Z,99.90
2022-09-03T22:07:46.538Z,99.90
2022-09-03T22:10:46.107Z,99.90
2022-09-03T22:13:32.378Z,99.90
2022-09-03T22:19:11.346Z,99.90
2022-09-03T22:22:00.104Z,99.90
2022-09-03T22:24:39.041Z,99.90
2022-09-03T22:27:18.419Z,99.90
2022-09-03T22:29:59.784Z,99.90
2022-09-03T22:32:40.609Z,99.90
2022-09-03T22:35:31.637Z,99.90
2022-09-03T22:38:22.751Z,99.90
2022-09-03T22:41:11.587Z,99.90
2022-09-03T22:43:45.258Z,99.90
2022-09-03T22:46:17.993Z,99.90
2022-09-03T22:48:51.085Z,99.90
2022-09-03T22:51:21.762Z,99.90
2022-09-03T22:54:21.022Z,99.90
2022-09-03T22:56:48.868Z,99.90
2022-09-03T22:59:25.122Z,99.90
2022-09-03T23:02:14.230Z,99.90
2022-09-03T23:05:07.621Z,99.90
2022-09-03T23:07:54.780Z,99.90
2022-09-03T23:10:28.454Z,99.90
2022-09-03T23:13:19.798Z,99.90
2022-09-03T23:15:56.470Z,99.90
2022-09-03T23:18:27.030Z,99.90
2022-09-03T23:21:07.803Z,99.90
2022-09-03T23:23:44.254Z,99.90
2022-09-03T23:26:35.160Z,99.90
2022-09-03T23:29:47.106Z,99.90
2022-09-03T23:32:14.904Z,99.90
2022-09-03T23:34:41.715Z,99.90
2022-09-03T23:37:36.728Z,99.90
2022-09-03T23:40:34.112Z,99.90
2022-09-03T23:43:35.412Z,99.90
2022-09-03T23:46:13.714Z,99.90
2022-09-03T23:48:59.518Z,99.90
2022-09-03T23:51:38.585Z,99.90
2022-09-03T23:54:19.837Z,99.90
2022-09-03T23:57:02.293Z,99.90
2022-09-03T23:59:41.351Z,99.90
